createdAt,value
2022-12-09T00:01:52.008Z,36.58
2022-12-09T00:04:19.908Z,33.45
2022-12-09T00:06:48.207Z,34.95
2022-12-09T00:09:17.016Z,35.55
2022-12-09T00:11:45.813Z,33.90
2022-12-09T00:14:13.654Z,34.05
2022-12-09T00:16:43.579Z,35.85
2022-12-09T00:19:11.960Z,36.63
2022-12-09T00:21:40.537Z,31.45
2022-12-09T00:24:11.138Z,34.22
2022-12-09T00:26:40.127Z,33.88
2022-12-09T00:29:08.629Z,32.83
2022-12-09T00:31:39.267Z,30.48
2022-12-09T00:34:12.505Z,31.88
2022-12-09T00:36:41.824Z,33.83
2022-12-09T00:39:12.236Z,36.03
2022-12-09T00:41:40.702Z,34.08
2022-12-09T00:44:08.516Z,37.88
2022-12-09T00:46:37.112Z,36.30
2022-12-09T00:49:05.559Z,29.15
2022-12-09T00:51:35.268Z,37.40
2022-12-09T00:54:03.414Z,29.73
2022-12-09T00:56:32.785Z,29.75
2022-12-09T00:59:00.788Z,33.25
2022-12-09T01:01:29.458Z,42.72
2022-12-09T01:03:58.783Z,34.25
2022-12-09T01:06:28.246Z,35.13
2022-12-09T01:08:57.589Z,33.67
2022-12-09T01:11:28.399Z,33.75
2022-12-09T01:14:01.106Z,29.95
2022-12-09T01:16:31.655Z,35.97
2022-12-09T01:19:01.719Z,31.50
2022-12-09T01:21:31.452Z,31.20
2022-12-09T01:24:00.900Z,35.17
2022-12-09T01:26:28.864Z,31.73
2022-12-09T01:28:57.841Z,32.45
2022-12-09T01:31:26.584Z,30.15
2022-12-09T01:33:56.895Z,32.58
2022-12-09T01:36:27.119Z,35.05
2022-12-09T01:38:55.651Z,35.40
2022-12-09T01:41:25.167Z,30.13
2022-12-09T01:44:17.022Z,34.67
2022-12-09T01:46:45.645Z,31.15
2022-12-09T01:49:18.926Z,34.30
2022-12-09T01:51:53.321Z,35.22
2022-12-09T01:54:22.578Z,29.57
2022-12-09T01:56:53.025Z,28.83
2022-12-09T01:59:21.847Z,32.53
2022-12-09T02:01:54.228Z,36.80
2022-12-09T02:04:22.573Z,33.08
2022-12-09T02:06:50.561Z,34.17
2022-12-09T02:09:18.685Z,33.13
2022-12-09T02:12:01.588Z,39.67
2022-12-09T02:14:37.025Z,32.78
2022-12-09T02:17:19.198Z,36.72
2022-12-09T02:20:02.013Z,34.45
2022-12-09T02:22:34.720Z,36.75
2022-12-09T02:25:14.138Z,32.45
2022-12-09T02:27:50.404Z,32.67
2022-12-09T02:30:22.626Z,37.03
2022-12-09T02:33:13.656Z,37.80
2022-12-09T02:35:50.054Z,30.52
2022-12-09T02:38:23.019Z,37.17
2022-12-09T02:40:55.848Z,33.15
2022-12-09T02:43:27.746Z,31.63
2022-12-09T02:45:58.549Z,35.70
2022-12-09T02:48:31.395Z,30.92
2022-12-09T02:51:06.204Z,31.13
2022-12-09T02:53:35.937Z,32.17
2022-12-09T02:56:06.270Z,34.90
2022-12-09T02:58:34.119Z,30.23
2022-12-09T03:01:02.871Z,31.33
2022-12-09T03:03:34.378Z,27.98
2022-12-09T03:06:10.172Z,32.83
2022-12-09T03:08:45.900Z,32.78
2022-12-09T03:11:17.366Z,34.70
2022-12-09T03:13:53.578Z,38.45
2022-12-09T03:16:29.021Z,34.17
2022-12-09T03:19:02.435Z,30.55
2022-12-09T03:21:37.020Z,29.05
2022-12-09T03:24:10.306Z,32.22
2022-12-09T03:26:40.441Z,34.83
2022-12-09T03:29:12.160Z,34.60
2022-12-09T03:31:41.261Z,32.42
2022-12-09T03:34:15.726Z,36.53
2022-12-09T03:36:49.814Z,32.08
2022-12-09T03:39:22.586Z,30.85
2022-12-09T03:41:56.810Z,29.15
2022-12-09T03:44:31.454Z,33.13
2022-12-09T03:47:00.314Z,32.00
2022-12-09T03:49:28.927Z,33.55
2022-12-09T03:52:04.105Z,32.00
2022-12-09T03:57:05.357Z,32.38
2022-12-09T03:59:36.630Z,36.47
2022-12-09T04:02:07.707Z,31.00
2022-12-09T04:04:36.650Z,32.15
2022-12-09T04:07:05.935Z,36.58
2022-12-09T04:09:34.377Z,30.75
2022-12-09T04:12:02.979Z,38.13
2022-12-09T04:14:31.192Z,35.25
2022-12-09T04:16:59.574Z,31.10
2022-12-09T04:19:30.807Z,34.13
2022-12-09T04:21:58.945Z,36.10
2022-12-09T04:24:28.879Z,31.98
2022-12-09T04:26:57.424Z,34.03
2022-12-09T04:29:25.319Z,30.60
2022-12-09T04:31:53.875Z,36.90
2022-12-09T04:34:22.205Z,35.38
2022-12-09T04:36:50.507Z,37.65
2022-12-09T04:39:19.917Z,44.90
2022-12-09T04:41:49.971Z,46.13
2022-12-09T04:44:17.964Z,42.63
2022-12-09T04:46:46.158Z,42.22
2022-12-09T04:49:14.191Z,45.60
2022-12-09T04:51:43.292Z,44.55
2022-12-09T04:54:14.567Z,46.97
2022-12-09T04:56:43.751Z,44.72
2022-12-09T04:59:13.448Z,43.78
2022-12-09T05:01:42.260Z,42.47
2022-12-09T05:04:11.218Z,42.38
2022-12-09T05:06:39.566Z,40.55
2022-12-09T05:09:12.417Z,43.78
2022-12-09T05:11:41.206Z,47.13
2022-12-09T05:14:09.047Z,38.78
2022-12-09T05:16:39.234Z,39.00
2022-12-09T05:19:07.214Z,36.75
2022-12-09T05:21:35.719Z,39.20
2022-12-09T05:24:04.427Z,42.08
2022-12-09T05:26:32.372Z,39.40
2022-12-09T05:29:00.796Z,42.03
2022-12-09T05:31:29.885Z,44.80
2022-12-09T05:33:59.829Z,36.15
2022-12-09T05:36:29.257Z,40.72
2022-12-09T05:38:57.881Z,40.33
2022-12-09T05:41:27.326Z,47.80
2022-12-09T05:43:56.030Z,38.60
2022-12-09T05:46:24.375Z,47.83
2022-12-09T05:48:53.277Z,42.33
2022-12-09T05:51:32.358Z,70.35
2022-12-09T05:54:04.471Z,53.85
2022-12-09T05:56:39.462Z,35.47
2022-12-09T05:59:12.130Z,37.13
2022-12-09T06:01:40.314Z,36.50
2022-12-09T06:04:14.822Z,42.22
2022-12-09T06:06:45.450Z,37.97
2022-12-09T06:09:18.221Z,54.00
2022-12-09T06:11:47.917Z,66.93
2022-12-09T06:14:28.612Z,62.35
2022-12-09T06:16:56.706Z,73.93
2022-12-09T06:19:30.297Z,54.17
2022-12-09T06:22:02.149Z,31.50
2022-12-09T06:24:40.522Z,64.15
2022-12-09T06:27:12.844Z,48.65
2022-12-09T06:29:45.641Z,37.50
2022-12-09T06:32:31.448Z,59.63
2022-12-09T06:35:00.646Z,100.25
2022-12-09T06:44:17.129Z,62.75
2022-12-09T06:46:50.446Z,60.55
2022-12-09T06:49:19.163Z,43.45
2022-12-09T06:51:47.729Z,44.45
2022-12-09T06:54:18.657Z,45.55
2022-12-09T06:56:46.576Z,66.78
2022-12-09T06:59:15.007Z,43.67
2022-12-09T07:01:43.871Z,44.55
2022-12-09T07:04:14.792Z,65.15
2022-12-09T07:06:46.289Z,44.95
2022-12-09T07:09:16.958Z,44.67
2022-12-09T07:11:47.258Z,54.00
2022-12-09T07:14:20.030Z,60.33
2022-12-09T07:16:48.327Z,67.85
2022-12-09T07:19:18.999Z,55.63
2022-12-09T07:21:47.900Z,61.65
2022-12-09T07:24:16.229Z,58.58
2022-12-09T07:26:44.622Z,62.60
2022-12-09T07:29:15.911Z,48.00
2022-12-09T07:31:45.266Z,49.30
2022-12-09T07:34:13.890Z,44.75
2022-12-09T07:36:42.630Z,55.15
2022-12-09T07:39:14.861Z,49.78
2022-12-09T07:41:43.394Z,42.53
2022-12-09T07:44:12.985Z,47.30
2022-12-09T07:49:12.852Z,49.42
2022-12-09T07:51:40.912Z,58.00
2022-12-09T07:54:12.376Z,75.38
2022-12-09T07:56:40.930Z,100.35
2022-12-09T07:59:10.382Z,63.67
2022-12-09T08:01:40.085Z,89.93
2022-12-09T08:04:08.533Z,64.68
2022-12-09T08:06:37.942Z,50.80
2022-12-09T08:09:08.502Z,57.10
2022-12-09T08:11:37.721Z,54.63
2022-12-09T08:14:11.374Z,56.90
2022-12-09T08:16:43.536Z,73.00
2022-12-09T08:19:12.357Z,71.45
2022-12-09T08:21:40.742Z,58.67
2022-12-09T08:24:09.111Z,52.38
2022-12-09T08:26:40.195Z,65.93
2022-12-09T08:29:10.048Z,58.70
2022-12-09T08:31:41.693Z,51.22
2022-12-09T08:34:12.118Z,62.35
2022-12-09T08:36:43.299Z,53.28
2022-12-09T08:39:12.340Z,72.68
2022-12-09T08:41:41.179Z,62.45
2022-12-09T08:44:12.280Z,48.53
2022-12-09T08:46:44.596Z,56.78
2022-12-09T08:49:18.287Z,47.50
2022-12-09T08:51:48.301Z,49.13
2022-12-09T08:54:16.637Z,51.90
2022-12-09T08:56:46.802Z,49.20
2022-12-09T08:59:16.057Z,45.88
2022-12-09T09:01:44.655Z,54.40
2022-12-09T09:04:17.161Z,57.00
2022-12-09T09:06:49.617Z,60.70
2022-12-09T09:09:20.359Z,51.75
2022-12-09T09:11:48.923Z,50.75
2022-12-09T09:14:17.494Z,46.97
2022-12-09T09:16:47.181Z,58.70
2022-12-09T09:19:20.623Z,43.88
2022-12-09T09:21:49.708Z,48.75
2022-12-09T09:24:20.703Z,45.38
2022-12-09T09:26:50.998Z,46.88
2022-12-09T09:29:21.304Z,51.22
2022-12-09T09:31:51.904Z,49.80
2022-12-09T09:34:21.469Z,52.25
2022-12-09T09:36:51.173Z,48.45
2022-12-09T09:39:20.164Z,44.13
2022-12-09T09:41:52.925Z,42.13
2022-12-09T09:44:27.324Z,41.30
2022-12-09T09:49:54.469Z,42.20
2022-12-09T09:52:26.149Z,42.13
2022-12-09T09:54:54.270Z,52.60
2022-12-09T09:57:28.520Z,43.70
2022-12-09T10:00:10.132Z,44.95
2022-12-09T10:02:52.522Z,50.13
2022-12-09T10:05:26.198Z,45.42
2022-12-09T10:07:58.335Z,50.50
2022-12-09T10:10:40.294Z,50.92
2022-12-09T10:13:25.654Z,45.60
2022-12-09T10:16:06.321Z,46.28
2022-12-09T10:18:39.860Z,44.50
2022-12-09T10:21:17.194Z,44.65
2022-12-09T10:23:47.062Z,43.90
2022-12-09T10:26:21.255Z,45.13
2022-12-09T10:28:56.317Z,49.03
2022-12-09T10:31:25.881Z,36.72
2022-12-09T10:33:54.408Z,42.88
2022-12-09T10:36:32.392Z,46.45
2022-12-09T10:39:05.279Z,44.17
2022-12-09T10:42:01.412Z,42.65
2022-12-09T10:44:29.715Z,46.25
2022-12-09T10:46:59.913Z,44.60
2022-12-09T10:49:28.853Z,43.97
2022-12-09T10:52:00.115Z,42.53
2022-12-09T10:54:34.309Z,44.35
2022-12-09T10:57:09.580Z,41.27
2022-12-09T11:02:20.439Z,43.97
2022-12-09T11:04:49.288Z,46.80
2022-12-09T11:10:20.392Z,44.13
2022-12-09T11:12:53.486Z,43.47
2022-12-09T11:15:32.461Z,49.28
2022-12-09T11:20:59.271Z,47.58
2022-12-09T11:23:32.759Z,45.67
2022-12-09T11:26:02.610Z,46.03
2022-12-09T11:28:32.864Z,44.38
2022-12-09T11:33:56.731Z,42.83
2022-12-09T11:36:30.665Z,47.85
2022-12-09T11:39:21.366Z,46.47
2022-12-09T11:42:16.138Z,45.08
2022-12-09T11:47:23.706Z,51.22
2022-12-09T11:49:54.570Z,48.87
2022-12-09T11:52:26.381Z,42.05
2022-12-09T11:55:06.103Z,47.45
2022-12-09T11:57:37.430Z,48.70
2022-12-09T12:00:15.856Z,51.85
2022-12-09T12:02:49.643Z,52.60
2022-12-09T12:05:25.179Z,47.63
2022-12-09T12:08:04.263Z,52.58
2022-12-09T12:10:38.180Z,54.50
2022-12-09T12:13:13.353Z,46.17
2022-12-09T12:18:18.946Z,55.80
2022-12-09T12:21:05.050Z,39.85
2022-12-09T12:24:11.368Z,60.45
2022-12-09T12:26:45.093Z,53.05
2022-12-09T12:29:32.025Z,54.03
2022-12-09T12:32:25.573Z,54.65
2022-12-09T12:35:07.112Z,54.90
2022-12-09T12:37:48.834Z,52.30
2022-12-09T12:40:28.935Z,50.90
2022-12-09T12:43:24.522Z,53.90
2022-12-09T12:46:16.088Z,53.63
2022-12-09T12:48:56.913Z,56.50
2022-12-09T12:51:33.808Z,49.78
2022-12-09T12:54:16.325Z,56.38
2022-12-09T12:56:52.457Z,58.00
2022-12-09T12:59:30.656Z,50.50
2022-12-09T13:02:03.513Z,59.38
2022-12-09T13:04:41.253Z,55.05
2022-12-09T13:07:19.175Z,53.17
2022-12-09T13:09:53.725Z,59.72
2022-12-09T13:15:26.946Z,54.58
2022-12-09T13:17:56.182Z,59.88
2022-12-09T13:20:30.223Z,53.33
2022-12-09T13:23:04.393Z,55.05
2022-12-09T13:25:40.358Z,60.65
2022-12-09T13:28:12.668Z,59.60
2022-12-09T13:30:54.047Z,53.53
2022-12-09T13:33:38.327Z,54.40
2022-12-09T13:36:12.791Z,54.20
2022-12-09T13:38:42.607Z,49.63
2022-12-09T13:41:52.597Z,46.85
2022-12-09T13:44:21.276Z,53.70
2022-12-09T13:46:50.546Z,47.80
2022-12-09T13:49:21.291Z,43.85
2022-12-09T13:51:51.694Z,41.63
2022-12-09T13:54:21.786Z,40.15
2022-12-09T13:57:13.158Z,38.65
2022-12-09T13:59:46.316Z,44.03
2022-12-09T14:02:26.313Z,42.80
2022-12-09T14:05:03.364Z,40.92
2022-12-09T14:07:37.344Z,41.88
2022-12-09T14:10:06.886Z,39.30
2022-12-09T14:13:05.235Z,41.08
2022-12-09T14:15:39.564Z,40.70
2022-12-09T14:18:29.641Z,40.70
2022-12-09T14:21:31.864Z,37.70
2022-12-09T14:24:42.181Z,38.38
2022-12-09T14:27:18.368Z,42.25
2022-12-09T14:29:55.410Z,35.97
2022-12-09T14:32:29.229Z,39.05
2022-12-09T14:35:26.354Z,49.78
2022-12-09T14:38:21.121Z,45.63
2022-12-09T14:41:07.069Z,39.55
2022-12-09T14:44:00.532Z,48.08
2022-12-09T14:46:31.807Z,45.10
2022-12-09T14:49:03.421Z,42.70
2022-12-09T14:51:36.719Z,50.83
2022-12-09T14:54:08.109Z,46.97
2022-12-09T14:56:36.473Z,43.25
2022-12-09T14:59:10.079Z,43.38
2022-12-09T15:01:52.597Z,40.70
2022-12-09T15:04:31.243Z,45.08
2022-12-09T15:07:15.014Z,37.60
2022-12-09T15:09:55.120Z,36.35
2022-12-09T15:12:27.352Z,40.03
2022-12-09T15:14:59.787Z,46.28
2022-12-09T15:17:30.885Z,53.58
2022-12-09T15:20:00.489Z,56.72
2022-12-09T15:22:32.003Z,49.75
2022-12-09T15:25:02.506Z,40.50
2022-12-09T15:27:31.563Z,41.33
2022-12-09T15:29:59.554Z,48.38
2022-12-09T15:32:29.667Z,36.42
2022-12-09T15:35:17.619Z,39.55
2022-12-09T15:37:48.605Z,41.33
2022-12-09T15:40:20.613Z,42.97
2022-12-09T15:42:51.330Z,51.65
2022-12-09T15:45:21.952Z,44.63
2022-12-09T15:47:56.453Z,44.25
2022-12-09T15:50:32.378Z,51.17
2022-12-09T15:53:11.393Z,51.47
2022-12-09T15:55:43.840Z,43.33
2022-12-09T15:58:16.535Z,39.58
2022-12-09T16:00:48.866Z,45.15
2022-12-09T16:03:18.997Z,39.28
2022-12-09T16:05:53.366Z,49.80
2022-12-09T16:08:23.764Z,41.37
2022-12-09T16:10:53.316Z,46.03
2022-12-09T16:13:22.324Z,44.00
2022-12-09T16:15:53.130Z,45.65
2022-12-09T16:18:25.015Z,42.08
2022-12-09T16:21:21.093Z,45.95
2022-12-09T16:23:52.798Z,39.72
2022-12-09T16:26:28.740Z,45.90
2022-12-09T16:28:58.729Z,46.45
2022-12-09T16:31:27.116Z,48.80
2022-12-09T16:33:55.570Z,53.03
2022-12-09T16:36:26.695Z,43.65
2022-12-09T16:39:43.849Z,45.55
2022-12-09T16:42:22.864Z,50.67
2022-12-09T16:44:50.972Z,44.67
2022-12-09T16:47:21.018Z,41.92
2022-12-09T16:49:49.886Z,41.13
2022-12-09T16:52:21.389Z,44.95
2022-12-09T16:54:52.078Z,43.80
2022-12-09T16:57:21.604Z,48.55
2022-12-09T16:59:49.409Z,40.35
2022-12-09T17:02:22.363Z,38.88
2022-12-09T17:04:52.064Z,36.85
2022-12-09T17:07:20.129Z,38.28
2022-12-09T17:09:47.957Z,46.13
2022-12-09T17:12:17.348Z,39.75
2022-12-09T17:14:45.245Z,33.63
2022-12-09T17:17:13.446Z,39.72
2022-12-09T17:19:42.143Z,40.88
2022-12-09T17:22:10.666Z,39.35
2022-12-09T17:24:38.789Z,36.65
2022-12-09T17:27:06.676Z,38.15
2022-12-09T17:29:37.411Z,50.53
2022-12-09T17:32:05.630Z,46.10
2022-12-09T17:34:35.247Z,38.97
2022-12-09T17:37:03.097Z,38.45
2022-12-09T17:39:31.581Z,40.00
2022-12-09T17:41:59.499Z,42.00
2022-12-09T17:44:27.789Z,33.63
2022-12-09T17:46:57.080Z,41.97
2022-12-09T17:49:25.419Z,40.42
2022-12-09T17:51:53.529Z,36.42
2022-12-09T17:54:21.666Z,38.92
2022-12-09T17:56:49.571Z,41.70
2022-12-09T17:59:19.325Z,39.30
2022-12-09T18:01:47.391Z,40.20
2022-12-09T18:04:17.451Z,39.45
2022-12-09T18:06:46.853Z,36.47
2022-12-09T18:09:18.036Z,38.13
2022-12-09T18:11:46.121Z,39.25
2022-12-09T18:14:14.617Z,43.88
2022-12-09T18:16:43.846Z,37.47
2022-12-09T18:19:15.228Z,47.85
2022-12-09T18:21:45.818Z,48.00
2022-12-09T18:24:15.088Z,39.92
2022-12-09T18:26:43.220Z,35.08
2022-12-09T18:29:12.292Z,37.22
2022-12-09T18:31:40.448Z,37.92
2022-12-09T18:34:08.753Z,40.88
2022-12-09T18:36:38.912Z,39.88
2022-12-09T18:39:47.328Z,39.78
2022-12-09T18:44:57.833Z,35.55
2022-12-09T18:47:25.893Z,35.90
2022-12-09T18:55:14.143Z,41.13
2022-12-09T19:06:08.336Z,33.30
2022-12-09T19:19:37.572Z,38.00
2022-12-09T19:25:25.309Z,48.25
2022-12-09T19:28:16.763Z,51.58
2022-12-09T19:37:36.689Z,50.60
2022-12-09T19:40:45.018Z,46.72
2022-12-09T19:53:25.150Z,45.42
2022-12-09T20:06:53.049Z,46.42
2022-12-09T20:16:26.355Z,40.55
2022-12-09T20:24:10.167Z,47.85
2022-12-09T20:26:39.287Z,40.78
2022-12-09T20:29:11.224Z,38.15
2022-12-09T20:31:40.684Z,40.25
2022-12-09T20:34:13.014Z,45.80
2022-12-09T20:36:43.442Z,47.85
2022-12-09T20:39:15.963Z,43.80
2022-12-09T20:41:45.156Z,53.03
2022-12-09T20:44:14.417Z,43.58
2022-12-09T20:46:46.375Z,64.25
2022-12-09T20:49:14.059Z,58.85
2022-12-09T20:51:44.169Z,50.20
2022-12-09T20:54:14.557Z,46.65
2022-12-09T20:56:42.776Z,47.17
2022-12-09T20:59:12.468Z,54.85
2022-12-09T21:01:41.135Z,49.35
2022-12-09T21:04:09.277Z,53.58
2022-12-09T21:06:39.737Z,60.05
2022-12-09T21:09:10.230Z,58.35
2022-12-09T21:11:40.836Z,63.00
2022-12-09T21:14:09.027Z,56.28
2022-12-09T21:16:40.197Z,52.28
2022-12-09T21:19:11.416Z,56.05
2022-12-09T21:21:41.744Z,50.65
2022-12-09T21:24:11.713Z,54.83
2022-12-09T21:26:42.137Z,51.85
2022-12-09T21:29:11.548Z,59.53
2022-12-09T21:31:40.965Z,52.55
2022-12-09T21:34:11.489Z,52.55
2022-12-09T21:36:42.766Z,48.05
2022-12-09T21:39:13.713Z,49.38
2022-12-09T21:41:43.864Z,52.40
2022-12-09T21:44:16.662Z,43.33
2022-12-09T21:46:44.865Z,45.60
2022-12-09T21:49:13.375Z,44.63
2022-12-09T21:51:42.132Z,45.70
2022-12-09T21:54:10.543Z,51.75
2022-12-09T21:56:38.973Z,47.13
2022-12-09T21:59:09.614Z,44.17
2022-12-09T22:01:39.684Z,48.45
2022-12-09T22:04:10.007Z,45.53
2022-12-09T22:06:38.119Z,47.78
2022-12-09T22:09:07.958Z,43.10
2022-12-09T22:11:38.015Z,44.05
2022-12-09T22:14:07.153Z,40.30
2022-12-09T22:16:38.433Z,41.35
2022-12-09T22:19:08.318Z,45.30
2022-12-09T22:21:37.345Z,47.55
2022-12-09T22:24:07.319Z,45.05
2022-12-09T22:26:35.735Z,47.13
2022-12-09T22:29:05.903Z,48.78
2022-12-09T22:31:38.090Z,38.17
2022-12-09T22:34:07.883Z,44.50
2022-12-09T22:36:37.342Z,44.10
2022-12-09T22:39:06.882Z,50.85
2022-12-09T22:41:36.044Z,48.40
2022-12-09T22:44:04.381Z,47.05
2022-12-09T22:46:34.641Z,46.85
2022-12-09T22:49:05.728Z,44.38
2022-12-09T22:51:36.310Z,50.47
2022-12-09T22:54:06.461Z,44.88
2022-12-09T22:56:35.025Z,50.63
2022-12-09T22:59:02.892Z,52.72
2022-12-09T23:01:33.363Z,54.97
2022-12-09T23:04:03.546Z,49.55
2022-12-09T23:06:32.467Z,55.00
2022-12-09T23:09:00.440Z,55.10
2022-12-09T23:11:29.694Z,50.67
2022-12-09T23:14:00.413Z,52.97
2022-12-09T23:16:29.540Z,48.22
2022-12-09T23:18:58.996Z,46.45
2022-12-09T23:21:30.163Z,50.53
2022-12-09T23:23:59.498Z,50.63
2022-12-09T23:26:29.657Z,46.17
2022-12-09T23:29:02.532Z,50.40
2022-12-09T23:31:33.525Z,50.83
2022-12-09T23:34:02.634Z,53.40
2022-12-09T23:36:34.673Z,51.40
2022-12-09T23:39:03.931Z,50.72
2022-12-09T23:41:32.326Z,51.85
2022-12-09T23:44:00.807Z,51.08
2022-12-09T23:46:30.520Z,52.42
2022-12-09T23:48:59.026Z,51.20
2022-12-09T23:51:28.709Z,51.63
2022-12-09T23:54:00.084Z,55.60
2022-12-09T23:56:29.976Z,57.05
2022-12-09T23:59:01.203Z,56.47
